createdAt,value
2022-10-31T00:01:39.843Z,6.37
2022-10-31T00:04:25.102Z,6.29
2022-10-31T00:07:10.549Z,6.29
2022-10-31T00:09:55.887Z,6.27
2022-10-31T00:12:41.658Z,6.27
2022-10-31T00:15:27.233Z,6.24
2022-10-31T00:18:12.830Z,6.18
2022-10-31T00:21:02.928Z,6.15
2022-10-31T00:23:48.996Z,6.14
2022-10-31T00:26:35.225Z,6.14
2022-10-31T00:29:20.983Z,6.15
2022-10-31T00:32:06.597Z,6.17
2022-10-31T00:34:53.537Z,6.09
2022-10-31T00:37:39.059Z,6.00
2022-10-31T00:40:24.447Z,5.92
2022-10-31T00:45:57.689Z,5.83
2022-10-31T00:48:43.511Z,5.82
2022-10-31T00:51:29.017Z,5.82
2022-10-31T00:54:14.445Z,5.84
2022-10-31T00:57:00.385Z,5.87
2022-10-31T00:59:45.865Z,5.84
2022-10-31T01:02:31.325Z,5.79
2022-10-31T01:05:17.310Z,5.74
2022-10-31T01:08:04.841Z,5.73
2022-10-31T01:11:00.235Z,5.71
2022-10-31T01:13:46.710Z,5.71
2022-10-31T01:16:32.310Z,5.73
2022-10-31T01:19:18.008Z,5.73
2022-10-31T01:22:03.611Z,5.72
2022-10-31T01:24:49.164Z,5.67
2022-10-31T01:27:34.670Z,5.66
2022-10-31T01:30:20.417Z,5.63
2022-10-31T01:33:06.058Z,5.63
2022-10-31T01:35:51.869Z,5.57
2022-10-31T01:38:37.624Z,5.50
2022-10-31T01:41:26.453Z,5.48
2022-10-31T01:44:14.879Z,5.41
2022-10-31T01:47:06.565Z,5.38
2022-10-31T01:50:01.356Z,5.33
2022-10-31T01:52:51.399Z,5.31
2022-10-31T01:55:41.474Z,5.30
2022-10-31T01:58:29.643Z,5.25
2022-10-31T02:01:17.849Z,5.18
2022-10-31T02:04:05.123Z,5.19
2022-10-31T02:06:53.905Z,5.20
2022-10-31T02:09:41.700Z,5.23
2022-10-31T02:12:28.098Z,5.25
2022-10-31T02:15:17.832Z,5.21
2022-10-31T02:18:04.388Z,5.18
2022-10-31T02:21:03.745Z,5.12
2022-10-31T02:24:17.867Z,5.07
2022-10-31T02:27:33.677Z,5.03
2022-10-31T02:30:24.693Z,5.00
2022-10-31T02:33:27.449Z,4.96
2022-10-31T02:36:28.204Z,4.96
2022-10-31T02:39:32.199Z,4.95
2022-10-31T02:42:33.015Z,4.92
2022-10-31T02:45:34.072Z,4.87
2022-10-31T02:48:23.018Z,4.85
2022-10-31T02:51:11.115Z,4.83
2022-10-31T02:53:56.723Z,4.81
2022-10-31T02:56:41.965Z,4.79
2022-10-31T02:59:31.736Z,4.76
2022-10-31T03:02:33.890Z,4.73
2022-10-31T03:05:37.684Z,4.71
2022-10-31T03:08:39.137Z,4.72
2022-10-31T03:11:30.984Z,4.74
2022-10-31T03:14:25.249Z,4.76
2022-10-31T03:17:26.881Z,4.74
2022-10-31T03:20:12.379Z,4.75
2022-10-31T03:23:00.709Z,4.69
2022-10-31T03:25:48.518Z,4.69
2022-10-31T03:28:46.524Z,4.62
2022-10-31T03:31:37.796Z,4.59
2022-10-31T03:34:25.580Z,4.60
2022-10-31T03:37:15.174Z,4.60
2022-10-31T03:40:03.709Z,4.60
2022-10-31T03:43:01.581Z,4.60
2022-10-31T03:45:48.302Z,4.62
2022-10-31T03:48:34.802Z,4.64
2022-10-31T03:51:26.224Z,4.64
2022-10-31T03:54:32.231Z,4.63
2022-10-31T03:57:23.790Z,4.66
2022-10-31T04:00:12.232Z,4.68
2022-10-31T04:03:09.952Z,4.64
2022-10-31T04:06:01.586Z,4.65
2022-10-31T04:09:00.885Z,4.64
2022-10-31T04:11:53.553Z,4.63
2022-10-31T04:15:10.927Z,4.63
2022-10-31T04:18:00.650Z,4.61
2022-10-31T04:20:49.676Z,4.59
2022-10-31T04:23:37.319Z,4.58
2022-10-31T04:26:36.622Z,4.55
2022-10-31T04:29:22.499Z,4.52
2022-10-31T04:32:07.911Z,4.49
2022-10-31T04:34:53.373Z,4.49
2022-10-31T04:37:38.700Z,4.50
2022-10-31T04:40:24.209Z,4.49
2022-10-31T04:43:28.716Z,4.48
2022-10-31T04:46:14.109Z,4.45
2022-10-31T04:48:59.549Z,4.37
2022-10-31T04:51:45.554Z,4.37
2022-10-31T04:54:32.932Z,4.33
2022-10-31T04:57:45.735Z,4.33
2022-10-31T05:00:32.289Z,4.34
2022-10-31T05:03:17.763Z,4.37
2022-10-31T05:06:03.117Z,4.35
2022-10-31T05:08:48.678Z,4.33
2022-10-31T05:11:34.259Z,4.30
2022-10-31T05:14:31.886Z,4.28
2022-10-31T05:17:39.906Z,4.26
2022-10-31T05:20:51.669Z,4.25
2022-10-31T05:23:53.349Z,4.20
2022-10-31T05:26:41.539Z,4.19
2022-10-31T05:29:28.816Z,4.16
2022-10-31T05:32:14.397Z,4.15
2022-10-31T05:35:37.968Z,4.14
2022-10-31T05:38:46.463Z,4.08
2022-10-31T05:41:40.331Z,4.02
2022-10-31T05:44:33.289Z,4.00
2022-10-31T05:47:30.837Z,3.97
2022-10-31T05:50:16.420Z,3.95
2022-10-31T05:53:06.879Z,3.93
2022-10-31T05:55:57.158Z,3.93
2022-10-31T05:58:42.695Z,3.94
2022-10-31T06:01:28.217Z,3.94
2022-10-31T06:04:14.460Z,3.95
2022-10-31T06:07:01.654Z,3.96
2022-10-31T06:09:46.896Z,3.98
2022-10-31T06:12:32.906Z,3.95
2022-10-31T06:15:39.297Z,3.93
2022-10-31T06:18:26.742Z,3.93
2022-10-31T06:21:16.396Z,3.91
2022-10-31T06:24:05.473Z,3.91
2022-10-31T06:27:27.001Z,3.96
2022-10-31T06:30:13.391Z,3.98
2022-10-31T06:33:06.042Z,4.01
2022-10-31T06:35:54.389Z,4.05
2022-10-31T06:38:40.296Z,4.05
2022-10-31T06:41:27.774Z,4.09
2022-10-31T06:44:13.195Z,4.13
2022-10-31T06:47:13.786Z,4.21
2022-10-31T06:49:59.243Z,4.28
2022-10-31T06:52:54.248Z,4.37
2022-10-31T06:55:39.897Z,4.46
2022-10-31T06:58:27.404Z,4.54
2022-10-31T07:01:18.025Z,4.62
2022-10-31T07:04:03.584Z,4.73
2022-10-31T07:06:53.801Z,4.82
2022-10-31T07:09:39.445Z,4.91
2022-10-31T07:12:26.473Z,5.02
2022-10-31T07:15:17.141Z,5.17
2022-10-31T07:18:04.696Z,5.30
2022-10-31T07:20:50.277Z,5.46
2022-10-31T07:23:37.304Z,5.60
2022-10-31T07:29:51.357Z,5.95
2022-10-31T07:32:44.620Z,6.10
2022-10-31T07:35:32.677Z,6.27
2022-10-31T07:38:18.824Z,6.39
2022-10-31T07:41:04.794Z,6.54
2022-10-31T07:47:05.912Z,6.85
2022-10-31T07:50:14.277Z,7.03
2022-10-31T07:53:38.502Z,7.25
2022-10-31T07:56:31.847Z,7.42
2022-10-31T07:59:17.256Z,7.57
2022-10-31T08:02:02.809Z,7.71
2022-10-31T08:04:51.261Z,7.85
2022-10-31T08:07:48.520Z,7.99
2022-10-31T08:10:38.995Z,8.13
2022-10-31T08:13:24.410Z,8.30
2022-10-31T08:16:10.440Z,8.44
2022-10-31T08:19:04.150Z,8.59
2022-10-31T08:21:56.881Z,8.74
2022-10-31T08:24:42.242Z,8.87
2022-10-31T08:27:27.695Z,9.05
2022-10-31T08:30:16.092Z,9.21
2022-10-31T08:33:16.582Z,9.37
2022-10-31T08:36:28.448Z,9.54
2022-10-31T08:39:22.643Z,9.69
2022-10-31T08:42:09.143Z,9.79
2022-10-31T08:44:54.557Z,9.91
2022-10-31T08:47:41.192Z,10.05
2022-10-31T08:50:27.970Z,10.19
2022-10-31T08:53:18.787Z,10.35
2022-10-31T08:56:09.002Z,10.51
2022-10-31T08:58:55.410Z,10.67
2022-10-31T09:01:50.774Z,10.85
2022-10-31T09:04:36.846Z,10.98
2022-10-31T09:07:22.137Z,11.10
2022-10-31T09:10:07.837Z,11.23
2022-10-31T09:12:59.785Z,11.40
2022-10-31T09:16:17.392Z,11.61
2022-10-31T09:19:05.199Z,11.75
2022-10-31T09:21:55.367Z,11.89
2022-10-31T09:24:40.939Z,12.04
2022-10-31T09:27:26.270Z,12.17
2022-10-31T09:30:14.381Z,12.31
2022-10-31T09:33:07.973Z,12.42
2022-10-31T09:35:54.032Z,12.57
2022-10-31T09:38:39.418Z,12.66
2022-10-31T09:41:43.678Z,12.81
2022-10-31T09:44:47.323Z,12.96
2022-10-31T09:48:04.242Z,13.15
2022-10-31T09:51:01.565Z,13.32
2022-10-31T09:54:21.735Z,13.48
2022-10-31T09:57:13.564Z,13.65
2022-10-31T10:00:00.384Z,13.80
2022-10-31T10:02:56.214Z,13.95
2022-10-31T10:05:46.336Z,14.11
2022-10-31T10:08:39.674Z,14.27
2022-10-31T10:12:02.484Z,14.42
2022-10-31T10:15:16.792Z,14.56
2022-10-31T10:18:45.708Z,14.71
2022-10-31T10:21:52.454Z,14.85
2022-10-31T10:24:53.192Z,15.02
2022-10-31T10:27:58.671Z,15.18
2022-10-31T10:31:08.841Z,15.33
2022-10-31T10:34:07.149Z,15.46
2022-10-31T10:37:02.338Z,15.58
2022-10-31T10:39:54.226Z,15.71
2022-10-31T10:42:57.859Z,15.84
2022-10-31T10:46:11.607Z,16.00
2022-10-31T10:49:20.415Z,16.17
2022-10-31T10:52:40.897Z,16.35
2022-10-31T10:55:45.842Z,16.52
2022-10-31T10:58:31.546Z,16.67
2022-10-31T11:01:17.299Z,16.80
2022-10-31T11:04:03.812Z,16.91
2022-10-31T11:07:02.697Z,17.04
2022-10-31T11:09:48.267Z,17.14
2022-10-31T11:12:34.833Z,17.24
2022-10-31T11:15:23.639Z,17.35
2022-10-31T11:18:22.467Z,17.46
2022-10-31T11:21:21.939Z,17.62
2022-10-31T11:24:10.151Z,17.75
2022-10-31T11:27:14.719Z,17.86
2022-10-31T11:30:08.304Z,17.95
2022-10-31T11:32:54.011Z,18.03
2022-10-31T11:35:41.172Z,18.10
2022-10-31T11:38:44.369Z,18.16
2022-10-31T11:41:37.447Z,18.25
2022-10-31T11:44:29.648Z,18.34
2022-10-31T11:47:17.523Z,18.46
2022-10-31T11:50:10.474Z,18.53
2022-10-31T11:52:56.570Z,18.62
2022-10-31T11:55:42.231Z,18.71
2022-10-31T11:58:28.034Z,18.81
2022-10-31T12:01:31.785Z,18.94
2022-10-31T12:04:20.140Z,19.05
2022-10-31T12:07:05.434Z,19.11
2022-10-31T12:09:51.211Z,19.19
2022-10-31T12:13:02.240Z,19.31
2022-10-31T12:15:56.494Z,19.42
2022-10-31T12:19:17.019Z,19.53
2022-10-31T12:22:31.719Z,19.68
2022-10-31T12:25:26.919Z,19.79
2022-10-31T12:28:15.446Z,19.89
2022-10-31T12:31:08.810Z,19.98
2022-10-31T12:34:09.551Z,20.09
2022-10-31T12:37:05.063Z,20.17
2022-10-31T12:40:05.696Z,20.29
2022-10-31T12:43:16.009Z,20.33
2022-10-31T12:46:04.084Z,20.38
2022-10-31T12:49:04.906Z,20.43
2022-10-31T12:51:57.810Z,20.48
2022-10-31T12:55:06.567Z,20.54
2022-10-31T12:57:59.382Z,20.59
2022-10-31T13:00:49.411Z,20.65
2022-10-31T13:03:47.652Z,20.71
2022-10-31T13:06:48.095Z,20.76
2022-10-31T13:09:47.281Z,20.82
2022-10-31T13:12:38.210Z,20.87
2022-10-31T13:15:28.025Z,20.90
2022-10-31T13:18:31.483Z,20.94
2022-10-31T13:21:26.259Z,20.94
2022-10-31T13:24:21.051Z,20.96
2022-10-31T13:27:22.947Z,21.02
2022-10-31T13:30:21.964Z,21.01
2022-10-31T13:33:18.656Z,20.94
2022-10-31T13:37:05.690Z,20.83
2022-10-31T13:40:00.031Z,20.81
2022-10-31T13:43:12.040Z,20.73
2022-10-31T13:45:57.505Z,20.73
2022-10-31T13:48:43.786Z,20.71
2022-10-31T13:51:35.319Z,20.69
2022-10-31T13:54:32.930Z,20.61
2022-10-31T13:57:33.117Z,20.53
2022-10-31T14:00:27.044Z,20.40
2022-10-31T14:03:36.185Z,20.33
2022-10-31T14:06:58.435Z,20.25
2022-10-31T14:09:55.708Z,20.13
2022-10-31T14:12:45.807Z,20.07
2022-10-31T14:15:31.907Z,19.97
2022-10-31T14:18:29.953Z,19.81
2022-10-31T14:21:17.421Z,19.69
2022-10-31T14:24:02.910Z,19.58
2022-10-31T14:26:57.317Z,19.48
2022-10-31T14:29:45.465Z,19.36
2022-10-31T14:32:36.570Z,19.28
2022-10-31T14:35:27.506Z,19.18
2022-10-31T14:38:40.704Z,19.10
2022-10-31T14:41:50.902Z,19.00
2022-10-31T14:45:00.920Z,18.91
2022-10-31T14:47:54.473Z,18.83
2022-10-31T14:51:09.726Z,18.71
2022-10-31T14:53:58.019Z,18.62
2022-10-31T14:56:50.614Z,18.53
2022-10-31T14:59:40.159Z,18.46
2022-10-31T15:02:37.967Z,18.34
2022-10-31T15:05:24.034Z,18.18
2022-10-31T15:08:30.296Z,17.90
2022-10-31T15:11:20.148Z,17.75
2022-10-31T15:14:23.954Z,17.50
2022-10-31T15:17:12.619Z,17.31
2022-10-31T15:19:58.701Z,17.12
2022-10-31T15:22:44.094Z,16.88
2022-10-31T15:25:34.928Z,16.67
2022-10-31T15:28:25.701Z,16.46
2022-10-31T15:31:17.658Z,16.22
2022-10-31T15:34:17.302Z,16.04
2022-10-31T15:37:02.613Z,15.86
2022-10-31T15:39:50.316Z,15.70
2022-10-31T15:42:41.744Z,15.55
2022-10-31T15:45:29.562Z,15.41
2022-10-31T15:48:19.181Z,15.25
2022-10-31T15:51:05.996Z,15.07
2022-10-31T15:53:54.882Z,14.90
2022-10-31T15:56:40.421Z,14.77
2022-10-31T15:59:28.418Z,14.62
2022-10-31T16:02:16.444Z,14.51
2022-10-31T16:05:03.270Z,14.40
2022-10-31T16:07:52.954Z,14.28
2022-10-31T16:10:38.370Z,14.19
2022-10-31T16:13:30.180Z,14.09
2022-10-31T16:16:35.553Z,13.97
2022-10-31T16:19:36.795Z,13.85
2022-10-31T16:22:26.538Z,13.71
2022-10-31T16:25:25.957Z,13.57
2022-10-31T16:28:20.624Z,13.46
2022-10-31T16:31:15.180Z,13.36
2022-10-31T16:34:13.743Z,13.23
2022-10-31T16:36:58.995Z,13.11
2022-10-31T16:39:44.171Z,12.99
2022-10-31T16:42:29.693Z,12.86
2022-10-31T16:45:24.624Z,12.79
2022-10-31T16:48:16.445Z,12.70
2022-10-31T16:51:02.146Z,12.57
2022-10-31T16:53:47.775Z,12.51
2022-10-31T16:56:35.325Z,12.51
2022-10-31T16:59:20.834Z,12.52
2022-10-31T17:02:12.139Z,12.52
2022-10-31T17:04:57.825Z,12.51
2022-10-31T17:07:43.832Z,12.49
2022-10-31T17:10:29.307Z,12.47
2022-10-31T17:13:19.900Z,12.47
2022-10-31T17:16:05.605Z,12.45
2022-10-31T17:18:50.912Z,12.41
2022-10-31T17:21:37.715Z,12.41
2022-10-31T17:24:22.977Z,12.44
2022-10-31T17:27:08.421Z,12.47
2022-10-31T17:29:54.089Z,12.50
2022-10-31T17:32:40.468Z,12.54
2022-10-31T17:35:26.389Z,12.58
2022-10-31T17:38:12.576Z,12.59
2022-10-31T17:40:58.207Z,12.61
2022-10-31T17:43:43.651Z,12.54
2022-10-31T17:46:29.162Z,11.92
2022-10-31T17:49:14.529Z,11.78
2022-10-31T17:52:00.176Z,11.71
2022-10-31T17:54:45.946Z,11.65
2022-10-31T17:57:36.357Z,11.58
2022-10-31T18:00:24.069Z,11.54
2022-10-31T18:03:09.693Z,11.49
2022-10-31T18:05:58.352Z,11.45
2022-10-31T18:08:44.605Z,11.44
2022-10-31T18:11:29.753Z,11.39
2022-10-31T18:14:15.046Z,11.35
2022-10-31T18:17:00.497Z,11.31
2022-10-31T18:19:45.979Z,11.29
2022-10-31T18:22:31.482Z,11.17
2022-10-31T18:25:16.895Z,11.10
2022-10-31T18:28:02.902Z,11.05
2022-10-31T18:30:48.711Z,11.00
2022-10-31T18:33:34.196Z,10.96
2022-10-31T18:36:19.671Z,10.91
2022-10-31T18:39:05.443Z,10.82
2022-10-31T18:41:50.889Z,10.75
2022-10-31T18:44:36.355Z,10.70
2022-10-31T18:47:22.635Z,10.60
2022-10-31T18:50:07.869Z,10.52
2022-10-31T18:52:53.076Z,10.49
2022-10-31T18:55:45.492Z,10.47
2022-10-31T18:58:35.181Z,10.44
2022-10-31T19:01:22.094Z,10.39
2022-10-31T19:04:07.482Z,10.31
2022-10-31T19:06:54.425Z,10.29
2022-10-31T19:09:40.366Z,10.27
2022-10-31T19:12:25.890Z,10.24
2022-10-31T19:15:11.288Z,10.13
2022-10-31T19:17:57.066Z,10.05
2022-10-31T19:20:42.567Z,10.02
2022-10-31T19:23:28.142Z,9.99
2022-10-31T19:26:14.913Z,9.90
2022-10-31T19:29:00.140Z,9.85
2022-10-31T19:31:45.647Z,9.80
2022-10-31T19:34:31.067Z,9.71
2022-10-31T19:37:16.621Z,9.64
2022-10-31T19:40:02.681Z,9.60
2022-10-31T19:42:48.043Z,9.55
2022-10-31T19:45:33.665Z,9.47
2022-10-31T19:48:19.070Z,9.42
2022-10-31T19:51:07.591Z,9.37
2022-10-31T19:53:54.180Z,9.33
2022-10-31T19:56:39.860Z,9.30
2022-10-31T19:59:26.244Z,9.27
2022-10-31T20:02:19.742Z,9.25
2022-10-31T20:05:05.869Z,9.20
2022-10-31T20:07:51.751Z,9.19
2022-10-31T20:10:37.441Z,9.16
2022-10-31T20:13:24.069Z,9.13
2022-10-31T20:16:11.848Z,9.09
2022-10-31T20:18:59.610Z,9.03
2022-10-31T20:21:45.306Z,8.99
2022-10-31T20:24:32.760Z,8.95
2022-10-31T20:27:18.093Z,8.92
2022-10-31T20:30:04.187Z,8.88
2022-10-31T20:32:50.228Z,8.78
2022-10-31T20:35:40.482Z,8.61
2022-10-31T20:38:26.018Z,8.46
2022-10-31T20:41:12.512Z,8.36
2022-10-31T20:43:58.372Z,8.21
2022-10-31T20:46:43.891Z,8.16
2022-10-31T20:49:30.611Z,8.10
2022-10-31T20:52:16.519Z,8.02
2022-10-31T20:55:02.258Z,7.95
2022-10-31T20:57:47.660Z,7.84
2022-10-31T21:00:33.599Z,7.82
2022-10-31T21:03:19.805Z,7.80
2022-10-31T21:06:05.585Z,7.80
2022-10-31T21:08:52.225Z,7.73
2022-10-31T21:11:38.113Z,7.68
2022-10-31T21:14:23.508Z,7.64
2022-10-31T21:17:09.022Z,7.62
2022-10-31T21:19:54.501Z,7.61
2022-10-31T21:22:40.278Z,7.54
2022-10-31T21:25:25.985Z,7.49
2022-10-31T21:28:12.744Z,7.45
2022-10-31T21:30:59.841Z,7.39
2022-10-31T21:33:46.617Z,7.29
2022-10-31T21:36:31.918Z,7.26
2022-10-31T21:39:17.364Z,7.19
2022-10-31T21:42:02.593Z,7.16
2022-10-31T21:44:47.959Z,7.14
2022-10-31T21:47:33.582Z,7.10
2022-10-31T21:50:19.011Z,7.06
2022-10-31T21:53:24.543Z,7.06
2022-10-31T21:56:09.973Z,7.02
2022-10-31T21:58:56.123Z,6.99
2022-10-31T22:01:41.948Z,6.90
2022-10-31T22:04:28.182Z,6.80
2022-10-31T22:07:13.649Z,6.77
2022-10-31T22:09:59.047Z,6.68
2022-10-31T22:12:44.505Z,6.65
2022-10-31T22:15:30.063Z,6.62
2022-10-31T22:18:15.374Z,6.59
2022-10-31T22:21:02.649Z,6.59
2022-10-31T22:24:01.947Z,6.61
2022-10-31T22:26:50.369Z,6.59
2022-10-31T22:29:37.637Z,6.58
2022-10-31T22:32:23.610Z,6.56
2022-10-31T22:35:09.379Z,6.49
2022-10-31T22:37:54.923Z,6.43
2022-10-31T22:40:40.586Z,6.35
2022-10-31T22:43:26.336Z,6.31
2022-10-31T22:46:14.517Z,6.29
2022-10-31T22:49:00.978Z,6.27
2022-10-31T22:51:45.984Z,6.20
2022-10-31T22:54:32.114Z,6.10
2022-10-31T22:57:17.303Z,5.99
2022-10-31T23:00:04.551Z,5.93
2022-10-31T23:02:49.855Z,5.92
2022-10-31T23:05:35.275Z,5.87
2022-10-31T23:08:20.575Z,5.78
2022-10-31T23:11:33.714Z,5.71
2022-10-31T23:14:21.131Z,5.66
2022-10-31T23:17:06.922Z,5.61
2022-10-31T23:19:52.224Z,5.54
2022-10-31T23:22:37.755Z,5.49
2022-10-31T23:25:41.639Z,5.45
2022-10-31T23:28:26.936Z,5.39
2022-10-31T23:31:12.457Z,5.39
2022-10-31T23:33:57.904Z,5.35
2022-10-31T23:36:43.370Z,5.33
2022-10-31T23:39:29.697Z,5.28
2022-10-31T23:42:15.733Z,5.25
2022-10-31T23:45:01.650Z,5.22
2022-10-31T23:47:46.841Z,5.23
2022-10-31T23:50:32.448Z,5.28
2022-10-31T23:53:17.703Z,5.27
2022-10-31T23:56:03.108Z,5.30
2022-10-31T23:58:48.661Z,5.34
